sensor_id;sensor_type;location;lat;lon;timestamp;P1;durP1;ratioP1;P2;durP2;ratioP2
24008;SDS011;12217;50.792;4.372;2023-12-28T00:00:33;4.85;;;3.30;;
24008;SDS011;12217;50.792;4.372;2023-12-28T00:02:59;7.22;;;4.20;;
24008;SDS011;12217;50.792;4.372;2023-12-28T00:05:25;8.18;;;3.95;;
24008;SDS011;12217;50.792;4.372;2023-12-28T00:07:50;5.85;;;4.22;;
24008;SDS011;12217;50.792;4.372;2023-12-28T00:12:51;5.63;;;3.97;;
24008;SDS011;12217;50.792;4.372;2023-12-28T00:15:17;5.47;;;3.90;;
24008;SDS011;12217;50.792;4.372;2023-12-28T00:17:43;5.22;;;4.03;;
24008;SDS011;12217;50.792;4.372;2023-12-28T00:20:09;4.25;;;3.85;;
24008;SDS011;12217;50.792;4.372;2023-12-28T00:22:35;8.38;;;3.92;;
24008;SDS011;12217;50.792;4.372;2023-12-28T00:25:02;7.28;;;4.15;;
24008;SDS011;12217;50.792;4.372;2023-12-28T00:27:31;5.35;;;3.67;;
24008;SDS011;12217;50.792;4.372;2023-12-28T00:29:59;7.60;;;3.83;;
24008;SDS011;12217;50.792;4.372;2023-12-28T00:32:25;6.70;;;4.07;;
24008;SDS011;12217;50.792;4.372;2023-12-28T00:34:50;5.85;;;3.60;;
24008;SDS011;12217;50.792;4.372;2023-12-28T00:37:16;6.65;;;3.88;;
24008;SDS011;12217;50.792;4.372;2023-12-28T00:39:42;9.07;;;4.00;;
24008;SDS011;12217;50.792;4.372;2023-12-28T00:42:08;5.97;;;3.80;;
24008;SDS011;12217;50.792;4.372;2023-12-28T00:44:33;8.00;;;4.03;;
24008;SDS011;12217;50.792;4.372;2023-12-28T00:46:59;8.00;;;4.13;;
24008;SDS011;12217;50.792;4.372;2023-12-28T00:49:24;6.70;;;3.53;;
24008;SDS011;12217;50.792;4.372;2023-12-28T00:51:50;5.82;;;3.78;;
24008;SDS011;12217;50.792;4.372;2023-12-28T00:54:16;8.07;;;4.03;;
24008;SDS011;12217;50.792;4.372;2023-12-28T00:56:41;7.43;;;4.05;;
24008;SDS011;12217;50.792;4.372;2023-12-28T00:59:07;6.22;;;4.22;;
24008;SDS011;12217;50.792;4.372;2023-12-28T01:01:32;8.00;;;3.70;;
24008;SDS011;12217;50.792;4.372;2023-12-28T01:03:58;5.70;;;3.80;;
24008;SDS011;12217;50.792;4.372;2023-12-28T01:06:24;5.97;;;4.00;;
24008;SDS011;12217;50.792;4.372;2023-12-28T01:08:53;7.40;;;4.13;;
24008;SDS011;12217;50.792;4.372;2023-12-28T01:11:22;6.65;;;4.20;;
24008;SDS011;12217;50.792;4.372;2023-12-28T01:13:48;6.22;;;3.92;;
24008;SDS011;12217;50.792;4.372;2023-12-28T01:16:13;4.95;;;3.90;;
24008;SDS011;12217;50.792;4.372;2023-12-28T01:18:39;4.63;;;3.70;;
24008;SDS011;12217;50.792;4.372;2023-12-28T01:21:05;7.65;;;3.97;;
24008;SDS011;12217;50.792;4.372;2023-12-28T01:23:31;7.55;;;4.30;;
24008;SDS011;12217;50.792;4.372;2023-12-28T01:25:57;8.18;;;4.43;;
24008;SDS011;12217;50.792;4.372;2023-12-28T01:28:22;5.90;;;3.78;;
24008;SDS011;12217;50.792;4.372;2023-12-28T01:30:48;8.02;;;4.10;;
24008;SDS011;12217;50.792;4.372;2023-12-28T01:33:14;5.97;;;4.18;;
24008;SDS011;12217;50.792;4.372;2023-12-28T01:35:40;6.80;;;3.90;;
24008;SDS011;12217;50.792;4.372;2023-12-28T01:38:06;7.43;;;3.60;;
24008;SDS011;12217;50.792;4.372;2023-12-28T01:40:32;5.68;;;3.40;;
24008;SDS011;12217;50.792;4.372;2023-12-28T01:42:57;5.55;;;3.60;;
24008;SDS011;12217;50.792;4.372;2023-12-28T01:45:23;5.70;;;3.40;;
24008;SDS011;12217;50.792;4.372;2023-12-28T01:47:48;5.53;;;3.63;;
24008;SDS011;12217;50.792;4.372;2023-12-28T01:50:15;5.45;;;3.47;;
24008;SDS011;12217;50.792;4.372;2023-12-28T01:52:41;7.00;;;3.80;;
24008;SDS011;12217;50.792;4.372;2023-12-28T01:55:07;6.22;;;3.55;;
24008;SDS011;12217;50.792;4.372;2023-12-28T01:57:33;5.38;;;3.38;;
24008;SDS011;12217;50.792;4.372;2023-12-28T01:59:59;5.28;;;3.30;;
24008;SDS011;12217;50.792;4.372;2023-12-28T02:02:28;5.75;;;3.35;;
24008;SDS011;12217;50.792;4.372;2023-12-28T02:04:55;6.72;;;2.88;;
24008;SDS011;12217;50.792;4.372;2023-12-28T02:07:21;5.85;;;3.45;;
24008;SDS011;12217;50.792;4.372;2023-12-28T02:09:47;6.32;;;3.15;;
24008;SDS011;12217;50.792;4.372;2023-12-28T02:12:13;7.60;;;3.60;;
24008;SDS011;12217;50.792;4.372;2023-12-28T02:14:38;6.57;;;3.03;;
24008;SDS011;12217;50.792;4.372;2023-12-28T02:17:06;5.72;;;3.38;;
24008;SDS011;12217;50.792;4.372;2023-12-28T02:19:50;9.57;;;3.55;;
24008;SDS011;12217;50.792;4.372;2023-12-28T02:22:17;5.65;;;3.42;;
24008;SDS011;12217;50.792;4.372;2023-12-28T02:24:54;5.90;;;3.45;;
24008;SDS011;12217;50.792;4.372;2023-12-28T02:27:29;7.28;;;3.25;;
24008;SDS011;12217;50.792;4.372;2023-12-28T02:29:55;6.47;;;3.30;;
24008;SDS011;12217;50.792;4.372;2023-12-28T02:32:22;5.57;;;3.25;;
24008;SDS011;12217;50.792;4.372;2023-12-28T02:34:59;4.63;;;3.45;;
24008;SDS011;12217;50.792;4.372;2023-12-28T02:37:31;5.78;;;3.13;;
24008;SDS011;12217;50.792;4.372;2023-12-28T02:39:58;7.18;;;3.40;;
24008;SDS011;12217;50.792;4.372;2023-12-28T02:42:24;4.93;;;3.10;;
24008;SDS011;12217;50.792;4.372;2023-12-28T02:44:50;5.60;;;2.75;;
24008;SDS011;12217;50.792;4.372;2023-12-28T02:47:15;7.45;;;3.45;;
24008;SDS011;12217;50.792;4.372;2023-12-28T02:49:41;11.52;;;3.35;;
24008;SDS011;12217;50.792;4.372;2023-12-28T02:52:07;8.10;;;3.53;;
24008;SDS011;12217;50.792;4.372;2023-12-28T02:54:32;6.68;;;3.40;;
24008;SDS011;12217;50.792;4.372;2023-12-28T02:56:58;6.45;;;3.28;;
24008;SDS011;12217;50.792;4.372;2023-12-28T02:59:23;10.57;;;3.22;;
24008;SDS011;12217;50.792;4.372;2023-12-28T03:01:49;8.35;;;3.40;;
24008;SDS011;12217;50.792;4.372;2023-12-28T03:04:15;10.05;;;3.30;;
24008;SDS011;12217;50.792;4.372;2023-12-28T03:06:41;7.65;;;3.00;;
24008;SDS011;12217;50.792;4.372;2023-12-28T03:09:06;7.15;;;2.92;;
24008;SDS011;12217;50.792;4.372;2023-12-28T03:11:32;5.55;;;2.83;;
24008;SDS011;12217;50.792;4.372;2023-12-28T03:13:59;9.23;;;2.90;;
24008;SDS011;12217;50.792;4.372;2023-12-28T03:16:24;4.82;;;2.60;;
24008;SDS011;12217;50.792;4.372;2023-12-28T03:18:50;7.35;;;2.63;;
24008;SDS011;12217;50.792;4.372;2023-12-28T03:21:15;9.65;;;3.22;;
24008;SDS011;12217;50.792;4.372;2023-12-28T03:23:41;8.55;;;3.15;;
24008;SDS011;12217;50.792;4.372;2023-12-28T03:26:07;7.75;;;2.80;;
24008;SDS011;12217;50.792;4.372;2023-12-28T03:28:33;9.10;;;2.67;;
24008;SDS011;12217;50.792;4.372;2023-12-28T03:30:58;8.32;;;2.90;;
24008;SDS011;12217;50.792;4.372;2023-12-28T03:33:27;12.38;;;3.10;;
24008;SDS011;12217;50.792;4.372;2023-12-28T03:35:53;10.27;;;3.08;;
24008;SDS011;12217;50.792;4.372;2023-12-28T03:38:19;9.15;;;3.13;;
24008;SDS011;12217;50.792;4.372;2023-12-28T03:40:44;7.03;;;2.90;;
24008;SDS011;12217;50.792;4.372;2023-12-28T03:43:12;7.88;;;2.70;;
24008;SDS011;12217;50.792;4.372;2023-12-28T03:45:38;8.90;;;2.95;;
24008;SDS011;12217;50.792;4.372;2023-12-28T03:48:04;6.88;;;2.97;;
24008;SDS011;12217;50.792;4.372;2023-12-28T03:50:29;10.25;;;2.70;;
24008;SDS011;12217;50.792;4.372;2023-12-28T03:52:55;10.70;;;3.10;;
24008;SDS011;12217;50.792;4.372;2023-12-28T03:55:21;8.27;;;3.00;;
24008;SDS011;12217;50.792;4.372;2023-12-28T03:57:46;6.40;;;2.83;;
24008;SDS011;12217;50.792;4.372;2023-12-28T04:00:12;7.80;;;2.47;;
24008;SDS011;12217;50.792;4.372;2023-12-28T04:02:39;7.32;;;2.70;;
24008;SDS011;12217;50.792;4.372;2023-12-28T04:05:05;10.23;;;2.83;;
24008;SDS011;12217;50.792;4.372;2023-12-28T04:07:32;11.02;;;2.78;;
24008;SDS011;12217;50.792;4.372;2023-12-28T04:09:57;12.77;;;3.45;;
24008;SDS011;12217;50.792;4.372;2023-12-28T04:12:23;8.48;;;2.80;;
24008;SDS011;12217;50.792;4.372;2023-12-28T04:14:49;13.07;;;2.63;;
24008;SDS011;12217;50.792;4.372;2023-12-28T04:17:14;9.38;;;2.75;;
24008;SDS011;12217;50.792;4.372;2023-12-28T04:19:40;10.63;;;2.78;;
24008;SDS011;12217;50.792;4.372;2023-12-28T04:22:06;10.13;;;2.95;;
24008;SDS011;12217;50.792;4.372;2023-12-28T04:24:31;11.02;;;2.90;;
24008;SDS011;12217;50.792;4.372;2023-12-28T04:26:58;11.32;;;2.50;;
24008;SDS011;12217;50.792;4.372;2023-12-28T04:29:23;10.48;;;2.72;;
24008;SDS011;12217;50.792;4.372;2023-12-28T04:31:49;10.18;;;2.90;;
24008;SDS011;12217;50.792;4.372;2023-12-28T04:34:15;16.90;;;2.80;;
24008;SDS011;12217;50.792;4.372;2023-12-28T04:36:43;12.30;;;2.88;;
24008;SDS011;12217;50.792;4.372;2023-12-28T04:39:10;9.98;;;3.20;;
24008;SDS011;12217;50.792;4.372;2023-12-28T04:41:36;11.98;;;2.75;;
24008;SDS011;12217;50.792;4.372;2023-12-28T04:44:02;9.38;;;2.50;;
24008;SDS011;12217;50.792;4.372;2023-12-28T04:46:28;16.52;;;3.22;;
24008;SDS011;12217;50.792;4.372;2023-12-28T04:48:53;13.35;;;2.78;;
24008;SDS011;12217;50.792;4.372;2023-12-28T04:51:19;11.93;;;3.45;;
24008;SDS011;12217;50.792;4.372;2023-12-28T04:53:45;14.25;;;2.92;;
24008;SDS011;12217;50.792;4.372;2023-12-28T04:56:10;10.27;;;2.60;;
24008;SDS011;12217;50.792;4.372;2023-12-28T04:58:36;14.43;;;3.20;;
24008;SDS011;12217;50.792;4.372;2023-12-28T05:01:02;15.32;;;3.10;;
24008;SDS011;12217;50.792;4.372;2023-12-28T05:03:27;13.40;;;3.20;;
24008;SDS011;12217;50.792;4.372;2023-12-28T05:05:53;12.48;;;2.63;;
24008;SDS011;12217;50.792;4.372;2023-12-28T05:08:19;20.88;;;2.88;;
24008;SDS011;12217;50.792;4.372;2023-12-28T05:10:44;9.68;;;3.10;;
24008;SDS011;12217;50.792;4.372;2023-12-28T05:13:10;13.13;;;3.30;;
24008;SDS011;12217;50.792;4.372;2023-12-28T05:15:36;13.25;;;2.65;;
24008;SDS011;12217;50.792;4.372;2023-12-28T05:18:01;10.75;;;3.08;;
24008;SDS011;12217;50.792;4.372;2023-12-28T05:20:27;13.18;;;3.30;;
24008;SDS011;12217;50.792;4.372;2023-12-28T05:22:53;13.68;;;3.30;;
24008;SDS011;12217;50.792;4.372;2023-12-28T05:25:18;13.90;;;3.22;;
24008;SDS011;12217;50.792;4.372;2023-12-28T05:27:44;16.27;;;3.15;;
24008;SDS011;12217;50.792;4.372;2023-12-28T05:30:09;14.25;;;3.33;;
24008;SDS011;12217;50.792;4.372;2023-12-28T05:32:36;13.30;;;3.13;;
24008;SDS011;12217;50.792;4.372;2023-12-28T05:35:01;11.18;;;3.08;;
24008;SDS011;12217;50.792;4.372;2023-12-28T05:37:28;12.88;;;3.00;;
24008;SDS011;12217;50.792;4.372;2023-12-28T05:39:54;15.07;;;3.47;;
24008;SDS011;12217;50.792;4.372;2023-12-28T05:42:19;11.88;;;2.83;;
24008;SDS011;12217;50.792;4.372;2023-12-28T05:44:45;10.85;;;2.70;;
24008;SDS011;12217;50.792;4.372;2023-12-28T05:47:10;12.30;;;3.70;;
24008;SDS011;12217;50.792;4.372;2023-12-28T05:49:37;17.58;;;3.00;;
24008;SDS011;12217;50.792;4.372;2023-12-28T05:52:02;16.35;;;3.70;;
24008;SDS011;12217;50.792;4.372;2023-12-28T05:54:28;12.48;;;2.70;;
24008;SDS011;12217;50.792;4.372;2023-12-28T05:56:54;11.73;;;2.75;;
24008;SDS011;12217;50.792;4.372;2023-12-28T05:59:19;13.23;;;2.88;;
24008;SDS011;12217;50.792;4.372;2023-12-28T06:01:46;12.10;;;2.70;;
24008;SDS011;12217;50.792;4.372;2023-12-28T06:04:12;10.90;;;2.78;;
24008;SDS011;12217;50.792;4.372;2023-12-28T06:06:38;12.45;;;2.85;;
24008;SDS011;12217;50.792;4.372;2023-12-28T06:09:04;14.23;;;2.42;;
24008;SDS011;12217;50.792;4.372;2023-12-28T06:11:29;14.43;;;2.92;;
24008;SDS011;12217;50.792;4.372;2023-12-28T06:13:55;18.60;;;3.17;;
24008;SDS011;12217;50.792;4.372;2023-12-28T06:16:21;12.15;;;3.25;;
24008;SDS011;12217;50.792;4.372;2023-12-28T06:18:46;10.30;;;2.25;;
24008;SDS011;12217;50.792;4.372;2023-12-28T06:21:12;15.15;;;3.25;;
24008;SDS011;12217;50.792;4.372;2023-12-28T06:23:37;13.15;;;2.63;;
24008;SDS011;12217;50.792;4.372;2023-12-28T06:26:04;14.00;;;2.25;;
24008;SDS011;12217;50.792;4.372;2023-12-28T06:28:31;10.40;;;2.50;;
24008;SDS011;12217;50.792;4.372;2023-12-28T06:30:57;17.23;;;3.00;;
24008;SDS011;12217;50.792;4.372;2023-12-28T06:33:25;18.65;;;3.17;;
24008;SDS011;12217;50.792;4.372;2023-12-28T06:35:52;15.35;;;3.20;;
24008;SDS011;12217;50.792;4.372;2023-12-28T06:38:18;15.32;;;2.90;;
24008;SDS011;12217;50.792;4.372;2023-12-28T06:40:43;22.25;;;3.47;;
24008;SDS011;12217;50.792;4.372;2023-12-28T06:43:09;14.07;;;2.70;;
24008;SDS011;12217;50.792;4.372;2023-12-28T06:45:35;16.63;;;3.20;;
24008;SDS011;12217;50.792;4.372;2023-12-28T06:48:00;15.30;;;3.00;;
24008;SDS011;12217;50.792;4.372;2023-12-28T06:50:26;16.75;;;3.15;;
24008;SDS011;12217;50.792;4.372;2023-12-28T06:52:51;16.85;;;3.47;;
24008;SDS011;12217;50.792;4.372;2023-12-28T06:55:17;16.70;;;3.10;;
24008;SDS011;12217;50.792;4.372;2023-12-28T06:57:43;17.67;;;3.60;;
24008;SDS011;12217;50.792;4.372;2023-12-28T07:00:09;18.73;;;3.15;;
24008;SDS011;12217;50.792;4.372;2023-12-28T07:02:35;23.60;;;2.95;;
24008;SDS011;12217;50.792;4.372;2023-12-28T07:05:01;18.33;;;3.17;;
24008;SDS011;12217;50.792;4.372;2023-12-28T07:07:26;15.15;;;2.92;;
24008;SDS011;12217;50.792;4.372;2023-12-28T07:09:52;15.02;;;2.58;;
24008;SDS011;12217;50.792;4.372;2023-12-28T07:12:18;17.63;;;3.58;;
24008;SDS011;12217;50.792;4.372;2023-12-28T07:14:45;15.27;;;3.00;;
24008;SDS011;12217;50.792;4.372;2023-12-28T07:17:12;16.73;;;3.13;;
24008;SDS011;12217;50.792;4.372;2023-12-28T07:19:42;17.38;;;3.20;;
24008;SDS011;12217;50.792;4.372;2023-12-28T07:22:08;13.77;;;2.72;;
24008;SDS011;12217;50.792;4.372;2023-12-28T07:24:33;20.65;;;3.40;;
24008;SDS011;12217;50.792;4.372;2023-12-28T07:26:59;19.08;;;3.03;;
24008;SDS011;12217;50.792;4.372;2023-12-28T07:29:24;17.48;;;3.58;;
24008;SDS011;12217;50.792;4.372;2023-12-28T07:31:50;11.88;;;2.90;;
24008;SDS011;12217;50.792;4.372;2023-12-28T07:34:16;18.73;;;3.55;;
24008;SDS011;12217;50.792;4.372;2023-12-28T07:36:42;13.75;;;3.13;;
24008;SDS011;12217;50.792;4.372;2023-12-28T07:39:08;11.88;;;3.30;;
24008;SDS011;12217;50.792;4.372;2023-12-28T07:41:34;17.10;;;3.75;;
24008;SDS011;12217;50.792;4.372;2023-12-28T07:44:00;15.98;;;3.78;;
24008;SDS011;12217;50.792;4.372;2023-12-28T07:46:25;17.85;;;3.25;;
24008;SDS011;12217;50.792;4.372;2023-12-28T07:48:51;19.27;;;3.40;;
24008;SDS011;12217;50.792;4.372;2023-12-28T07:51:17;17.23;;;3.95;;
24008;SDS011;12217;50.792;4.372;2023-12-28T07:53:42;17.50;;;3.05;;
24008;SDS011;12217;50.792;4.372;2023-12-28T07:56:08;22.45;;;3.75;;
24008;SDS011;12217;50.792;4.372;2023-12-28T07:58:33;17.08;;;3.28;;
24008;SDS011;12217;50.792;4.372;2023-12-28T08:01:02;14.20;;;3.63;;
24008;SDS011;12217;50.792;4.372;2023-12-28T08:03:28;19.08;;;3.10;;
24008;SDS011;12217;50.792;4.372;2023-12-28T08:05:53;17.30;;;3.70;;
24008;SDS011;12217;50.792;4.372;2023-12-28T08:08:19;16.15;;;2.90;;
24008;SDS011;12217;50.792;4.372;2023-12-28T08:10:45;23.73;;;3.38;;
24008;SDS011;12217;50.792;4.372;2023-12-28T08:13:10;18.55;;;3.80;;
24008;SDS011;12217;50.792;4.372;2023-12-28T08:15:36;21.90;;;3.28;;
24008;SDS011;12217;50.792;4.372;2023-12-28T08:18:01;19.83;;;4.03;;
24008;SDS011;12217;50.792;4.372;2023-12-28T08:20:27;19.88;;;3.53;;
24008;SDS011;12217;50.792;4.372;2023-12-28T08:22:53;18.98;;;3.75;;
24008;SDS011;12217;50.792;4.372;2023-12-28T08:25:19;28.27;;;3.70;;
24008;SDS011;12217;50.792;4.372;2023-12-28T08:27:44;14.85;;;3.22;;
24008;SDS011;12217;50.792;4.372;2023-12-28T08:30:10;15.52;;;2.97;;
24008;SDS011;12217;50.792;4.372;2023-12-28T08:32:36;19.52;;;4.35;;
24008;SDS011;12217;50.792;4.372;2023-12-28T08:35:01;20.48;;;3.78;;
24008;SDS011;12217;50.792;4.372;2023-12-28T08:37:27;14.35;;;3.47;;
24008;SDS011;12217;50.792;4.372;2023-12-28T08:39:53;20.70;;;4.40;;
24008;SDS011;12217;50.792;4.372;2023-12-28T08:42:20;16.95;;;3.70;;
24008;SDS011;12217;50.792;4.372;2023-12-28T08:44:45;20.55;;;3.50;;
24008;SDS011;12217;50.792;4.372;2023-12-28T08:47:11;15.73;;;3.10;;
24008;SDS011;12217;50.792;4.372;2023-12-28T08:49:37;15.35;;;3.10;;
24008;SDS011;12217;50.792;4.372;2023-12-28T08:52:02;16.83;;;3.33;;
24008;SDS011;12217;50.792;4.372;2023-12-28T08:54:28;16.83;;;3.03;;
24008;SDS011;12217;50.792;4.372;2023-12-28T08:56:54;15.38;;;3.15;;
24008;SDS011;12217;50.792;4.372;2023-12-28T08:59:19;15.38;;;2.97;;
24008;SDS011;12217;50.792;4.372;2023-12-28T09:01:45;14.02;;;3.08;;
24008;SDS011;12217;50.792;4.372;2023-12-28T09:04:11;14.73;;;3.20;;
24008;SDS011;12217;50.792;4.372;2023-12-28T09:06:36;19.23;;;3.05;;
24008;SDS011;12217;50.792;4.372;2023-12-28T09:09:02;17.52;;;3.42;;
24008;SDS011;12217;50.792;4.372;2023-12-28T09:11:28;19.35;;;3.60;;
24008;SDS011;12217;50.792;4.372;2023-12-28T09:13:54;21.23;;;3.78;;
24008;SDS011;12217;50.792;4.372;2023-12-28T09:16:20;16.30;;;3.85;;
24008;SDS011;12217;50.792;4.372;2023-12-28T09:18:46;22.05;;;3.83;;
24008;SDS011;12217;50.792;4.372;2023-12-28T09:21:11;22.15;;;3.53;;
24008;SDS011;12217;50.792;4.372;2023-12-28T09:23:37;19.73;;;3.53;;
24008;SDS011;12217;50.792;4.372;2023-12-28T09:26:05;15.63;;;2.70;;
24008;SDS011;12217;50.792;4.372;2023-12-28T09:28:32;17.42;;;3.47;;
24008;SDS011;12217;50.792;4.372;2023-12-28T09:30:58;21.05;;;3.83;;
24008;SDS011;12217;50.792;4.372;2023-12-28T09:33:23;18.80;;;3.22;;
24008;SDS011;12217;50.792;4.372;2023-12-28T09:35:49;16.13;;;2.90;;
24008;SDS011;12217;50.792;4.372;2023-12-28T09:38:15;21.15;;;3.25;;
24008;SDS011;12217;50.792;4.372;2023-12-28T09:40:43;21.00;;;3.70;;
24008;SDS011;12217;50.792;4.372;2023-12-28T09:43:19;15.90;;;3.92;;
24008;SDS011;12217;50.792;4.372;2023-12-28T09:45:50;17.48;;;3.40;;
24008;SDS011;12217;50.792;4.372;2023-12-28T09:48:17;18.05;;;3.28;;
24008;SDS011;12217;50.792;4.372;2023-12-28T09:50:45;17.33;;;3.10;;
24008;SDS011;12217;50.792;4.372;2023-12-28T09:53:14;19.80;;;3.97;;
24008;SDS011;12217;50.792;4.372;2023-12-28T09:55:39;20.17;;;3.10;;
24008;SDS011;12217;50.792;4.372;2023-12-28T09:58:05;16.63;;;3.33;;
24008;SDS011;12217;50.792;4.372;2023-12-28T10:00:32;19.13;;;3.42;;
24008;SDS011;12217;50.792;4.372;2023-12-28T10:02:57;22.67;;;3.47;;
24008;SDS011;12217;50.792;4.372;2023-12-28T10:05:23;16.70;;;3.13;;
24008;SDS011;12217;50.792;4.372;2023-12-28T10:07:49;17.65;;;3.22;;
24008;SDS011;12217;50.792;4.372;2023-12-28T10:10:16;15.52;;;2.85;;
24008;SDS011;12217;50.792;4.372;2023-12-28T10:12:42;19.75;;;3.33;;
24008;SDS011;12217;50.792;4.372;2023-12-28T10:15:08;23.60;;;3.33;;
24008;SDS011;12217;50.792;4.372;2023-12-28T10:17:34;17.58;;;3.42;;
24008;SDS011;12217;50.792;4.372;2023-12-28T10:20:01;14.77;;;2.80;;
24008;SDS011;12217;50.792;4.372;2023-12-28T10:22:30;20.88;;;3.58;;
24008;SDS011;12217;50.792;4.372;2023-12-28T10:24:56;14.75;;;2.80;;
24008;SDS011;12217;50.792;4.372;2023-12-28T10:27:24;20.63;;;3.42;;
24008;SDS011;12217;50.792;4.372;2023-12-28T10:29:52;21.13;;;4.00;;
24008;SDS011;12217;50.792;4.372;2023-12-28T10:32:21;22.90;;;3.50;;
24008;SDS011;12217;50.792;4.372;2023-12-28T10:34:49;11.45;;;2.80;;
24008;SDS011;12217;50.792;4.372;2023-12-28T10:37:16;17.95;;;3.42;;
24008;SDS011;12217;50.792;4.372;2023-12-28T10:39:46;18.23;;;3.38;;
24008;SDS011;12217;50.792;4.372;2023-12-28T10:42:14;19.95;;;3.75;;
24008;SDS011;12217;50.792;4.372;2023-12-28T10:44:47;15.35;;;3.10;;
24008;SDS011;12217;50.792;4.372;2023-12-28T10:47:17;18.08;;;3.15;;
24008;SDS011;12217;50.792;4.372;2023-12-28T10:49:45;16.05;;;3.45;;
24008;SDS011;12217;50.792;4.372;2023-12-28T10:52:13;21.30;;;2.97;;
24008;SDS011;12217;50.792;4.372;2023-12-28T10:54:46;19.70;;;3.50;;
24008;SDS011;12217;50.792;4.372;2023-12-28T11:00:11;17.52;;;3.15;;
24008;SDS011;12217;50.792;4.372;2023-12-28T11:02:44;14.98;;;3.05;;
24008;SDS011;12217;50.792;4.372;2023-12-28T11:05:13;24.17;;;3.80;;
24008;SDS011;12217;50.792;4.372;2023-12-28T11:07:42;15.52;;;3.47;;
24008;SDS011;12217;50.792;4.372;2023-12-28T11:10:09;19.38;;;3.28;;
24008;SDS011;12217;50.792;4.372;2023-12-28T11:12:35;16.05;;;2.92;;
24008;SDS011;12217;50.792;4.372;2023-12-28T11:15:02;20.58;;;3.55;;
24008;SDS011;12217;50.792;4.372;2023-12-28T11:17:30;19.50;;;3.05;;
24008;SDS011;12217;50.792;4.372;2023-12-28T11:19:56;20.25;;;3.30;;
24008;SDS011;12217;50.792;4.372;2023-12-28T11:22:23;18.77;;;3.55;;
24008;SDS011;12217;50.792;4.372;2023-12-28T11:24:53;17.30;;;3.33;;
24008;SDS011;12217;50.792;4.372;2023-12-28T11:27:19;16.23;;;2.90;;
24008;SDS011;12217;50.792;4.372;2023-12-28T11:29:47;15.70;;;3.53;;
24008;SDS011;12217;50.792;4.372;2023-12-28T11:32:13;22.75;;;3.53;;
24008;SDS011;12217;50.792;4.372;2023-12-28T11:34:39;17.35;;;3.17;;
24008;SDS011;12217;50.792;4.372;2023-12-28T11:37:08;16.83;;;3.33;;
24008;SDS011;12217;50.792;4.372;2023-12-28T11:39:39;16.38;;;3.33;;
24008;SDS011;12217;50.792;4.372;2023-12-28T11:42:08;17.85;;;3.50;;
24008;SDS011;12217;50.792;4.372;2023-12-28T11:44:38;21.30;;;3.30;;
24008;SDS011;12217;50.792;4.372;2023-12-28T11:47:11;20.27;;;3.15;;
24008;SDS011;12217;50.792;4.372;2023-12-28T11:49:55;22.55;;;3.10;;
24008;SDS011;12217;50.792;4.372;2023-12-28T11:52:32;22.17;;;3.33;;
24008;SDS011;12217;50.792;4.372;2023-12-28T11:54:59;19.27;;;4.47;;
24008;SDS011;12217;50.792;4.372;2023-12-28T11:57:25;18.45;;;3.75;;
24008;SDS011;12217;50.792;4.372;2023-12-28T11:59:58;20.88;;;3.17;;
24008;SDS011;12217;50.792;4.372;2023-12-28T12:02:24;19.60;;;3.42;;
24008;SDS011;12217;50.792;4.372;2023-12-28T12:04:51;18.05;;;3.28;;
24008;SDS011;12217;50.792;4.372;2023-12-28T12:07:22;21.60;;;3.60;;
24008;SDS011;12217;50.792;4.372;2023-12-28T12:09:49;19.48;;;3.35;;
24008;SDS011;12217;50.792;4.372;2023-12-28T12:12:15;18.33;;;3.35;;
24008;SDS011;12217;50.792;4.372;2023-12-28T12:14:41;20.73;;;3.60;;
24008;SDS011;12217;50.792;4.372;2023-12-28T12:17:08;20.50;;;3.65;;
24008;SDS011;12217;50.792;4.372;2023-12-28T12:19:33;21.90;;;4.15;;
24008;SDS011;12217;50.792;4.372;2023-12-28T12:21:59;17.95;;;3.50;;
24008;SDS011;12217;50.792;4.372;2023-12-28T12:24:25;21.60;;;3.15;;
24008;SDS011;12217;50.792;4.372;2023-12-28T12:26:51;16.58;;;3.47;;
24008;SDS011;12217;50.792;4.372;2023-12-28T12:29:17;15.82;;;3.40;;
24008;SDS011;12217;50.792;4.372;2023-12-28T12:31:44;16.75;;;3.42;;
24008;SDS011;12217;50.792;4.372;2023-12-28T12:34:15;21.25;;;3.85;;
24008;SDS011;12217;50.792;4.372;2023-12-28T12:36:41;14.10;;;3.47;;
24008;SDS011;12217;50.792;4.372;2023-12-28T12:39:07;18.58;;;4.20;;
24008;SDS011;12217;50.792;4.372;2023-12-28T12:41:36;24.30;;;3.25;;
24008;SDS011;12217;50.792;4.372;2023-12-28T12:44:02;15.73;;;3.08;;
24008;SDS011;12217;50.792;4.372;2023-12-28T12:46:29;17.02;;;2.97;;
24008;SDS011;12217;50.792;4.372;2023-12-28T12:48:58;15.63;;;3.00;;
24008;SDS011;12217;50.792;4.372;2023-12-28T12:51:26;20.77;;;3.25;;
24008;SDS011;12217;50.792;4.372;2023-12-28T12:53:59;18.45;;;2.85;;
24008;SDS011;12217;50.792;4.372;2023-12-28T12:56:27;16.40;;;2.50;;
24008;SDS011;12217;50.792;4.372;2023-12-28T12:58:54;19.67;;;2.85;;
24008;SDS011;12217;50.792;4.372;2023-12-28T13:01:21;20.65;;;3.65;;
24008;SDS011;12217;50.792;4.372;2023-12-28T13:03:47;16.55;;;2.97;;
24008;SDS011;12217;50.792;4.372;2023-12-28T13:06:13;12.18;;;2.67;;
24008;SDS011;12217;50.792;4.372;2023-12-28T13:08:38;19.85;;;3.40;;
24008;SDS011;12217;50.792;4.372;2023-12-28T13:11:04;17.10;;;3.13;;
24008;SDS011;12217;50.792;4.372;2023-12-28T13:13:32;17.33;;;2.80;;
24008;SDS011;12217;50.792;4.372;2023-12-28T13:15:58;24.08;;;2.75;;
24008;SDS011;12217;50.792;4.372;2023-12-28T13:18:23;18.15;;;3.47;;
24008;SDS011;12217;50.792;4.372;2023-12-28T13:20:49;24.63;;;3.45;;
24008;SDS011;12217;50.792;4.372;2023-12-28T13:23:15;15.10;;;2.97;;
24008;SDS011;12217;50.792;4.372;2023-12-28T13:25:40;18.15;;;3.05;;
24008;SDS011;12217;50.792;4.372;2023-12-28T13:28:06;18.20;;;3.08;;
24008;SDS011;12217;50.792;4.372;2023-12-28T13:30:33;14.43;;;3.15;;
24008;SDS011;12217;50.792;4.372;2023-12-28T13:33:01;16.27;;;3.10;;
24008;SDS011;12217;50.792;4.372;2023-12-28T13:35:27;18.65;;;3.45;;
24008;SDS011;12217;50.792;4.372;2023-12-28T13:37:53;15.55;;;3.10;;
24008;SDS011;12217;50.792;4.372;2023-12-28T13:40:19;21.30;;;3.10;;
24008;SDS011;12217;50.792;4.372;2023-12-28T13:42:45;19.30;;;3.40;;
24008;SDS011;12217;50.792;4.372;2023-12-28T13:45:11;20.92;;;3.20;;
24008;SDS011;12217;50.792;4.372;2023-12-28T13:47:37;15.73;;;3.05;;
24008;SDS011;12217;50.792;4.372;2023-12-28T13:50:03;13.35;;;2.83;;
24008;SDS011;12217;50.792;4.372;2023-12-28T13:52:29;16.50;;;3.78;;
24008;SDS011;12217;50.792;4.372;2023-12-28T13:54:54;21.98;;;3.95;;
24008;SDS011;12217;50.792;4.372;2023-12-28T13:57:20;20.52;;;2.75;;
24008;SDS011;12217;50.792;4.372;2023-12-28T13:59:45;18.02;;;3.22;;
24008;SDS011;12217;50.792;4.372;2023-12-28T14:02:11;13.10;;;2.80;;
24008;SDS011;12217;50.792;4.372;2023-12-28T14:04:37;21.73;;;3.03;;
24008;SDS011;12217;50.792;4.372;2023-12-28T14:07:02;14.73;;;2.70;;
24008;SDS011;12217;50.792;4.372;2023-12-28T14:09:28;14.38;;;3.10;;
24008;SDS011;12217;50.792;4.372;2023-12-28T14:11:55;17.48;;;2.83;;
24008;SDS011;12217;50.792;4.372;2023-12-28T14:14:21;21.58;;;3.78;;
24008;SDS011;12217;50.792;4.372;2023-12-28T14:16:46;13.98;;;3.00;;
24008;SDS011;12217;50.792;4.372;2023-12-28T14:19:12;16.23;;;2.85;;
24008;SDS011;12217;50.792;4.372;2023-12-28T14:21:38;20.52;;;3.75;;
24008;SDS011;12217;50.792;4.372;2023-12-28T14:24:04;18.67;;;3.15;;
24008;SDS011;12217;50.792;4.372;2023-12-28T14:26:31;16.67;;;2.60;;
24008;SDS011;12217;50.792;4.372;2023-12-28T14:28:58;15.40;;;3.03;;
24008;SDS011;12217;50.792;4.372;2023-12-28T14:31:27;16.15;;;2.72;;
24008;SDS011;12217;50.792;4.372;2023-12-28T14:33:53;17.17;;;3.17;;
24008;SDS011;12217;50.792;4.372;2023-12-28T14:38:48;16.50;;;2.85;;
24008;SDS011;12217;50.792;4.372;2023-12-28T14:41:15;20.63;;;3.20;;